Time;durP1;ratioP1;P1;durP2;ratioP2;P2;SDS_P1;SDS_P2;PMS_P1;PMS_P2;Temp;Humidity;BMP_temperature;BMP_pressure;BME280_temperature;BME280_humidity;BME280_pressure;Samples;Min_cycle;Max_cycle;Signal;HPM_P1;HPM_P2
2022/11/03 00:01:46;;;;;;;14.17;8.63;;;15.40;99.90;;;;;;4982237;28;20563;-77
2022/11/03 00:04:16;;;;;;;13.77;8.20;;;15.50;99.90;;;;;;5006474;28;20653;-78
2022/11/03 00:06:47;;;;;;;11.13;8.27;;;15.50;99.90;;;;;;5009620;28;20185;-78
2022/11/03 00:09:16;;;;;;;15.03;9.17;;;15.50;99.90;;;;;;4987507;28;20197;-77
2022/11/03 00:11:46;;;;;;;11.60;8.87;;;15.50;99.90;;;;;;5010360;28;20263;-78
2022/11/03 00:14:16;;;;;;;11.77;8.40;;;15.50;99.90;;;;;;4994244;28;20193;-78
2022/11/03 00:16:43;;;;;;;14.30;8.30;;;15.50;99.90;;;;;;5013059;28;20865;-78
2022/11/03 00:19:14;;;;;;;11.93;8.37;;;15.50;99.90;;;;;;4988533;28;20193;-77
2022/11/03 00:21:41;;;;;;;11.63;8.30;;;15.50;99.90;;;;;;4993771;28;20304;-77
2022/11/03 00:24:08;;;;;;;12.20;8.57;;;15.50;99.90;;;;;;5010458;28;20275;-77
2022/11/03 00:26:36;;;;;;;11.43;8.07;;;15.50;99.90;;;;;;5010241;28;20188;-78
2022/11/03 00:29:09;;;;;;;18.83;8.40;;;15.40;99.90;;;;;;5008547;28;20200;-78
2022/11/03 00:31:39;;;;;;;16.70;8.27;;;15.30;99.90;;;;;;4984723;28;20197;-77
2022/11/03 00:34:09;;;;;;;18.23;9.27;;;15.30;99.90;;;;;;5001041;28;20549;-77
2022/11/03 00:36:40;;;;;;;12.33;8.73;;;15.30;99.90;;;;;;5009029;28;20818;-78
2022/11/03 00:39:08;;;;;;;12.83;8.90;;;15.30;99.90;;;;;;5008832;28;20200;-78
2022/11/03 00:41:37;;;;;;;14.03;8.53;;;15.30;99.90;;;;;;4985460;28;20244;-77
2022/11/03 00:44:04;;;;;;;12.53;8.63;;;15.20;99.90;;;;;;5020826;28;20219;-78
2022/11/03 00:46:33;;;;;;;18.47;8.00;;;15.20;99.90;;;;;;5023916;28;20185;-77
2022/11/03 00:49:00;;;;;;;9.23;8.17;;;15.20;99.90;;;;;;5008969;28;20252;-78
2022/11/03 00:51:29;;;;;;;13.10;8.23;;;15.20;99.90;;;;;;4976238;28;20197;-77
2022/11/03 00:53:58;;;;;;;13.33;8.47;;;15.20;99.90;;;;;;4973164;28;20295;-78
2022/11/03 00:56:30;;;;;;;14.27;8.20;;;15.20;99.90;;;;;;5013430;28;20204;-77
2022/11/03 00:59:02;;;;;;;10.17;8.00;;;15.20;99.90;;;;;;4989884;28;20538;-78
2022/11/03 01:01:42;;;;;;;13.07;7.70;;;15.10;99.90;;;;;;4985827;28;20249;-77
2022/11/03 01:06:58;;;;;;;14.90;7.93;;;15.10;99.90;;;;;;5004576;28;20184;-78
2022/11/03 01:09:37;;;;;;;10.83;7.53;;;15.10;99.90;;;;;;4987897;28;20629;-78
2022/11/03 01:12:17;;;;;;;12.07;7.60;;;15.00;99.90;;;;;;4996838;28;20195;-77
2022/11/03 01:14:51;;;;;;;11.07;7.43;;;15.00;99.90;;;;;;4994839;28;20196;-77
2022/11/03 01:17:27;;;;;;;14.80;7.80;;;15.00;99.90;;;;;;5008502;28;20184;-78
2022/11/03 01:19:54;;;;;;;14.20;7.80;;;15.00;99.90;;;;;;4986060;28;20197;-78
2022/11/03 01:22:23;;;;;;;12.17;7.97;;;14.90;99.90;;;;;;4988232;28;20204;-77
2022/11/03 01:24:50;;;;;;;11.17;7.60;;;14.90;99.90;;;;;;4988582;28;20192;-78
2022/11/03 01:27:21;;;;;;;8.83;7.63;;;14.90;99.90;;;;;;4987423;28;20530;-78
2022/11/03 01:29:47;;;;;;;14.03;8.07;;;14.90;99.90;;;;;;4970985;28;20250;-77
2022/11/03 01:32:14;;;;;;;13.30;7.77;;;14.90;99.90;;;;;;5021713;28;20203;-78
2022/11/03 01:34:41;;;;;;;10.73;7.80;;;14.90;99.90;;;;;;4973316;28;20619;-77
2022/11/03 01:37:07;;;;;;;15.43;8.27;;;14.90;99.90;;;;;;4986671;28;20251;-78
2022/11/03 01:39:34;;;;;;;9.93;7.57;;;14.90;99.90;;;;;;4989825;28;20291;-77
2022/11/03 01:42:00;;;;;;;10.73;7.37;;;14.90;99.90;;;;;;4992470;28;20216;-78
2022/11/03 01:44:36;;;;;;;9.87;7.23;;;15.00;99.90;;;;;;4969096;28;20668;-77
2022/11/03 01:47:27;;;;;;;12.90;7.67;;;15.00;99.90;;;;;;4989736;28;20188;-78
2022/11/03 01:50:07;;;;;;;16.63;8.57;;;15.00;99.90;;;;;;5001670;28;20201;-77
2022/11/03 01:52:45;;;;;;;13.87;7.47;;;14.90;99.90;;;;;;5010807;28;22134;-77
2022/11/03 01:55:25;;;;;;;9.27;7.67;;;15.00;99.90;;;;;;5014923;28;20297;-77
2022/11/03 01:58:06;;;;;;;11.27;7.93;;;14.90;99.90;;;;;;4991959;28;20189;-77
2022/11/03 02:00:34;;;;;;;12.87;8.00;;;15.00;99.90;;;;;;4989870;28;20328;-78
2022/11/03 02:03:01;;;;;;;11.10;7.43;;;14.90;99.90;;;;;;5009295;28;20295;-77
2022/11/03 02:05:29;;;;;;;19.70;8.17;;;15.00;99.90;;;;;;5003730;28;20215;-77
2022/11/03 02:08:10;;;;;;;12.13;8.73;;;14.90;99.90;;;;;;4984983;28;20188;-78
2022/11/03 02:10:38;;;;;;;11.33;7.40;;;14.80;99.90;;;;;;4980144;28;20695;-77
2022/11/03 02:13:19;;;;;;;14.97;8.13;;;14.80;99.90;;;;;;4998233;28;20208;-78
2022/11/03 02:15:51;;;;;;;11.87;7.73;;;14.90;99.90;;;;;;5011023;28;20193;-78
2022/11/03 02:18:25;;;;;;;12.83;7.80;;;14.90;99.90;;;;;;5011028;28;20271;-77
2022/11/03 02:21:15;;;;;;;13.03;7.73;;;14.80;99.90;;;;;;5000779;28;20189;-78
2022/11/03 02:24:05;;;;;;;9.53;7.40;;;14.80;99.90;;;;;;5002060;28;20825;-77
2022/11/03 02:26:31;;;;;;;10.93;8.20;;;14.80;99.90;;;;;;5010612;28;20185;-78
2022/11/03 02:28:57;;;;;;;13.37;8.00;;;14.80;99.90;;;;;;4993506;28;20196;-78
2022/11/03 02:31:42;;;;;;;14.87;8.63;;;14.90;99.90;;;;;;5010512;28;20275;-78
2022/11/03 02:34:41;;;;;;;13.77;8.17;;;15.00;99.90;;;;;;5010522;28;20189;-77
2022/11/03 02:37:24;;;;;;;11.43;7.70;;;15.00;99.90;;;;;;4993835;28;20192;-76
2022/11/03 02:40:12;;;;;;;14.73;8.13;;;14.90;99.90;;;;;;5010568;28;20183;-77
2022/11/03 02:42:44;;;;;;;11.27;7.87;;;14.90;99.90;;;;;;4976124;28;20287;-77
2022/11/03 02:45:16;;;;;;;13.83;8.50;;;14.90;99.90;;;;;;5010314;28;20181;-77
2022/11/03 02:47:43;;;;;;;12.43;9.00;;;14.80;99.90;;;;;;5008967;28;20652;-77
2022/11/03 02:50:12;;;;;;;11.23;7.97;;;14.90;99.90;;;;;;5010468;28;20188;-77
2022/11/03 02:52:46;;;;;;;13.87;7.80;;;14.80;99.90;;;;;;5011733;28;20224;-77
2022/11/03 02:55:44;;;;;;;12.10;8.30;;;14.80;99.90;;;;;;5013381;28;20180;-77
2022/11/03 02:58:30;;;;;;;11.87;8.07;;;14.80;99.90;;;;;;4971508;28;20193;-77
2022/11/03 03:01:13;;;;;;;14.77;8.50;;;14.80;99.90;;;;;;5013509;28;20184;-78
2022/11/03 03:03:52;;;;;;;12.40;7.73;;;14.80;99.90;;;;;;4995018;28;20191;-77
2022/11/03 03:06:29;;;;;;;17.03;8.20;;;14.80;99.90;;;;;;5012340;28;20200;-77
2022/11/03 03:09:03;;;;;;;13.23;8.13;;;14.80;99.90;;;;;;4986258;28;20180;-78
2022/11/03 03:11:36;;;;;;;15.53;7.93;;;14.80;99.90;;;;;;4996876;28;20220;-77
2022/11/03 03:14:42;;;;;;;12.43;8.80;;;14.80;99.90;;;;;;4988599;28;20192;-77
2022/11/03 03:17:28;;;;;;;11.40;8.07;;;14.80;99.90;;;;;;5013448;28;20652;-77
2022/11/03 03:20:13;;;;;;;9.23;7.80;;;14.80;99.90;;;;;;5012297;28;20787;-77
2022/11/03 03:22:46;;;;;;;12.10;8.60;;;14.80;99.90;;;;;;5009214;28;20244;-78
2022/11/03 03:25:31;;;;;;;12.90;8.27;;;14.80;99.90;;;;;;5016172;28;20211;-77
2022/11/03 03:28:12;;;;;;;17.30;8.50;;;14.70;99.90;;;;;;5004749;28;20189;-77
2022/11/03 03:30:42;;;;;;;13.30;7.53;;;14.70;99.90;;;;;;5007770;28;20184;-77
2022/11/03 03:33:09;;;;;;;13.17;8.00;;;14.70;99.90;;;;;;5015105;28;20254;-77
2022/11/03 03:35:41;;;;;;;11.13;7.50;;;14.80;99.90;;;;;;5006507;28;20239;-77
2022/11/03 03:38:31;;;;;;;13.87;7.83;;;14.80;99.90;;;;;;5004539;28;20539;-77
2022/11/03 03:41:01;;;;;;;18.30;8.90;;;14.80;99.90;;;;;;5005155;28;20200;-78
2022/11/03 03:43:31;;;;;;;11.53;8.33;;;14.80;99.90;;;;;;4985705;28;20400;-77
2022/11/03 03:46:06;;;;;;;10.67;8.50;;;14.80;99.90;;;;;;5010550;28;20189;-77
2022/11/03 03:48:33;;;;;;;13.20;8.60;;;14.90;99.90;;;;;;5010210;28;20177;-77
2022/11/03 03:51:02;;;;;;;12.57;8.40;;;14.80;99.90;;;;;;5008977;28;20177;-77
2022/11/03 03:53:29;;;;;;;16.23;8.60;;;14.80;99.90;;;;;;5010052;28;20188;-78
2022/11/03 03:55:58;;;;;;;13.20;8.57;;;14.80;99.90;;;;;;4986010;28;20610;-78
2022/11/03 03:58:24;;;;;;;15.47;8.50;;;14.80;99.90;;;;;;4990505;28;20189;-78
2022/11/03 04:00:51;;;;;;;12.83;8.90;;;14.70;99.90;;;;;;4988962;28;20180;-76
2022/11/03 04:03:21;;;;;;;11.43;8.80;;;14.80;99.90;;;;;;5010936;28;20223;-77
2022/11/03 04:05:47;;;;;;;10.50;8.23;;;14.80;99.90;;;;;;4993740;28;20197;-78
2022/11/03 04:08:16;;;;;;;15.53;9.27;;;14.80;99.90;;;;;;4982520;28;20592;-77
2022/11/03 04:24:30;;;;;;;10.63;7.50;;;14.60;99.90;;;;;;5013286;28;20693;-77
2022/11/03 04:27:36;;;;;;;11.27;6.13;;;14.50;99.90;;;;;;5013811;28;20930;-78
2022/11/03 04:30:16;;;;;;;10.90;5.57;;;14.50;99.90;;;;;;5008106;28;20648;-77
2022/11/03 04:32:46;;;;;;;13.43;5.50;;;14.40;99.90;;;;;;4988322;28;20519;-77
2022/11/03 04:35:25;;;;;;;9.97;5.60;;;14.30;99.90;;;;;;4994963;28;20792;-77
2022/11/03 04:38:02;;;;;;;11.90;5.30;;;14.20;99.90;;;;;;5013025;28;20214;-77
2022/11/03 04:40:28;;;;;;;10.23;5.67;;;14.20;99.90;;;;;;4986497;28;20218;-77
2022/11/03 04:42:55;;;;;;;7.20;5.27;;;14.10;99.90;;;;;;5006357;28;20272;-77
2022/11/03 04:45:37;;;;;;;12.77;5.20;;;14.10;99.90;;;;;;5007306;28;20699;-77
2022/11/03 04:48:20;;;;;;;6.03;4.43;;;14.20;99.90;;;;;;5008861;28;20549;-77
2022/11/03 04:50:48;;;;;;;10.33;4.27;;;14.10;99.90;;;;;;4993446;28;20188;-78
2022/11/03 04:53:19;;;;;;;8.43;3.97;;;14.00;99.90;;;;;;5010800;28;20216;-77
2022/11/03 04:55:49;;;;;;;9.60;4.23;;;14.00;99.90;;;;;;5008995;28;20653;-77
2022/11/03 04:58:34;;;;;;;9.00;4.30;;;14.00;99.90;;;;;;5007643;28;20204;-77
2022/11/03 05:01:03;;;;;;;16.73;4.73;;;14.00;99.90;;;;;;4981994;28;20189;-77
2022/11/03 05:03:34;;;;;;;11.27;4.63;;;14.00;99.90;;;;;;4991719;28;20192;-77
2022/11/03 05:06:23;;;;;;;9.83;4.20;;;14.00;99.90;;;;;;4997219;28;20235;-77
2022/11/03 05:08:55;;;;;;;11.50;4.63;;;14.00;99.90;;;;;;4985939;28;20688;-77
2022/11/03 05:11:37;;;;;;;9.17;4.33;;;14.00;99.90;;;;;;4985133;28;20193;-77
2022/11/03 05:14:29;;;;;;;11.63;4.60;;;14.10;99.90;;;;;;5007455;28;20636;-77
2022/11/03 05:16:57;;;;;;;8.83;4.50;;;14.10;99.90;;;;;;5009257;28;20636;-77
2022/11/03 05:19:37;;;;;;;12.17;4.80;;;14.10;99.90;;;;;;5010679;28;20666;-77
2022/11/03 05:22:11;;;;;;;12.13;4.90;;;14.10;99.90;;;;;;5004198;28;20204;-77
2022/11/03 05:24:38;;;;;;;10.23;5.00;;;14.10;99.90;;;;;;5007571;28;20223;-77
2022/11/03 05:27:20;;;;;;;10.83;4.83;;;14.20;99.90;;;;;;4990317;28;20279;-77
2022/11/03 05:29:47;;;;;;;6.57;5.00;;;14.30;99.90;;;;;;4992717;28;20192;-77
2022/11/03 05:32:32;;;;;;;11.87;5.13;;;14.30;99.90;;;;;;5005764;28;20192;-77
2022/11/03 05:34:58;;;;;;;10.33;5.30;;;14.40;99.90;;;;;;4982827;28;20201;-77
2022/11/03 05:37:34;;;;;;;11.63;5.10;;;14.50;99.90;;;;;;4990175;28;20282;-77
2022/11/03 05:40:21;;;;;;;9.77;4.80;;;14.50;99.90;;;;;;5008188;28;20191;-77
2022/11/03 05:42:58;;;;;;;10.03;5.20;;;14.60;99.90;;;;;;5001719;28;20220;-77
2022/11/03 05:45:30;;;;;;;9.73;4.60;;;14.60;99.90;;;;;;4981428;28;20193;-77
2022/11/03 05:47:59;;;;;;;8.20;5.40;;;14.70;99.90;;;;;;4976554;28;20189;-77
2022/11/03 05:50:34;;;;;;;10.33;5.03;;;14.80;99.90;;;;;;4976559;28;20284;-77
2022/11/03 05:53:31;;;;;;;7.83;4.83;;;14.80;99.90;;;;;;5011433;28;20212;-77
2022/11/03 05:56:05;;;;;;;7.07;5.00;;;14.90;99.90;;;;;;5011961;28;20663;-77
2022/11/03 05:58:35;;;;;;;8.23;4.93;;;15.00;99.90;;;;;;5012045;28;20193;-77
2022/11/03 06:01:12;;;;;;;7.07;4.57;;;15.10;99.90;;;;;;5010353;28;20196;-77
2022/11/03 06:03:39;;;;;;;9.47;4.07;;;15.10;99.90;;;;;;4989808;28;20188;-77
2022/11/03 06:06:41;;;;;;;10.63;4.00;;;15.20;99.90;;;;;;5010120;28;20235;-77
2022/11/03 06:09:22;;;;;;;6.17;3.90;;;15.30;99.90;;;;;;5001879;28;20193;-77
2022/11/03 06:11:56;;;;;;;6.63;3.90;;;15.40;99.90;;;;;;5002096;28;20308;-77
2022/11/03 06:14:25;;;;;;;7.07;4.10;;;15.40;99.90;;;;;;5003647;28;20251;-77
2022/11/03 06:17:15;;;;;;;6.10;4.00;;;15.50;99.90;;;;;;5009663;28;20284;-77
2022/11/03 06:19:49;;;;;;;6.23;4.23;;;15.50;99.90;;;;;;5005440;28;20593;-77
2022/11/03 06:22:25;;;;;;;7.00;4.20;;;15.50;99.90;;;;;;5016551;28;20223;-77
2022/11/03 06:25:09;;;;;;;10.03;4.10;;;15.60;99.90;;;;;;4994040;28;20176;-77
2022/11/03 06:27:36;;;;;;;9.43;4.10;;;15.60;99.90;;;;;;5011505;28;20212;-77
2022/11/03 06:30:37;;;;;;;5.53;4.10;;;15.70;99.90;;;;;;5012032;28;20201;-77
2022/11/03 06:33:24;;;;;;;7.33;4.33;;;15.70;99.90;;;;;;4976063;28;20332;-77
2022/11/03 06:35:57;;;;;;;5.97;3.87;;;15.80;99.90;;;;;;5008458;28;20212;-77
2022/11/03 06:38:30;;;;;;;8.87;3.70;;;15.80;99.90;;;;;;4999170;28;20196;-77
2022/11/03 06:40:58;;;;;;;8.70;4.20;;;15.80;99.90;;;;;;5020614;28;20212;-77
2022/11/03 06:43:42;;;;;;;13.57;4.57;;;15.70;99.90;;;;;;5013122;28;20224;-77
2022/11/03 06:46:25;;;;;;;8.37;3.83;;;15.70;99.90;;;;;;4987301;28;20219;-77
2022/11/03 06:48:56;;;;;;;6.27;3.50;;;15.70;99.90;;;;;;4985865;28;20188;-77
2022/11/03 06:51:28;;;;;;;9.97;4.27;;;15.80;99.90;;;;;;4996169;28;20188;-77
2022/11/03 06:53:59;;;;;;;11.90;3.50;;;15.80;99.90;;;;;;5007333;28;20201;-78
2022/11/03 06:56:30;;;;;;;7.23;4.10;;;15.90;99.90;;;;;;5011918;28;20184;-77
2022/11/03 06:58:57;;;;;;;8.33;3.60;;;16.00;99.90;;;;;;5011651;28;20263;-77
2022/11/03 07:01:29;;;;;;;13.33;3.97;;;16.00;99.90;;;;;;5014786;28;20239;-77
2022/11/03 07:04:28;;;;;;;8.17;4.13;;;16.10;99.90;;;;;;5009379;28;20177;-77
2022/11/03 07:07:02;;;;;;;6.03;3.90;;;16.10;99.90;;;;;;5007827;28;20188;-77
2022/11/03 07:09:28;;;;;;;9.57;3.93;;;16.10;99.90;;;;;;5013700;28;20915;-77
2022/11/03 07:11:59;;;;;;;8.07;4.13;;;16.20;99.90;;;;;;5013332;28;21006;-77
2022/11/03 07:14:32;;;;;;;8.70;3.83;;;16.20;99.90;;;;;;4999281;28;20204;-77
2022/11/03 07:17:14;;;;;;;7.97;4.07;;;16.20;99.90;;;;;;4991764;28;20199;-77
2022/11/03 07:19:44;;;;;;;10.17;3.60;;;16.20;99.90;;;;;;4994029;28;20193;-78
2022/11/03 07:22:25;;;;;;;9.83;3.87;;;16.20;99.90;;;;;;5017055;28;20303;-78
2022/11/03 07:24:57;;;;;;;7.23;3.57;;;16.30;99.90;;;;;;5003370;28;21098;-77
2022/11/03 07:27:37;;;;;;;5.50;3.47;;;16.30;99.90;;;;;;5012279;28;20182;-77
2022/11/03 07:30:24;;;;;;;8.27;4.03;;;16.40;99.90;;;;;;5005956;28;20894;-77
2022/11/03 07:32:53;;;;;;;8.67;4.20;;;16.40;99.90;;;;;;5009567;28;20189;-77
2022/11/03 07:35:35;;;;;;;8.03;4.37;;;16.50;99.90;;;;;;4985795;28;20255;-77
2022/11/03 07:38:18;;;;;;;11.00;4.50;;;16.60;99.90;;;;;;5002417;28;20215;-77
2022/11/03 07:40:47;;;;;;;12.03;4.30;;;16.70;99.90;;;;;;4967282;28;20196;-77
2022/11/03 07:43:27;;;;;;;8.30;3.93;;;16.70;99.90;;;;;;5003619;28;20212;-76
2022/11/03 07:45:58;;;;;;;7.53;4.10;;;16.80;99.90;;;;;;5000832;28;20203;-76
2022/11/03 07:48:38;;;;;;;8.07;4.20;;;16.90;99.90;;;;;;4982203;28;20539;-76
2022/11/03 07:51:25;;;;;;;8.80;3.73;;;16.90;99.90;;;;;;4977902;28;20193;-77
2022/11/03 07:54:07;;;;;;;11.17;4.47;;;17.00;99.90;;;;;;5007308;28;20272;-77
2022/11/03 07:56:41;;;;;;;6.23;3.57;;;17.00;99.90;;;;;;5001009;28;20536;-77
2022/11/03 07:59:29;;;;;;;13.20;4.27;;;17.10;99.90;;;;;;4984238;28;20192;-77
2022/11/03 08:01:58;;;;;;;11.73;4.77;;;17.20;99.90;;;;;;4997169;28;20246;-77
2022/11/03 08:04:34;;;;;;;6.03;3.60;;;17.20;99.90;;;;;;5004909;28;20185;-76
2022/11/03 08:07:00;;;;;;;5.00;3.90;;;17.30;99.90;;;;;;4990322;28;20193;-77
2022/11/03 08:09:27;;;;;;;5.50;3.30;;;17.30;99.90;;;;;;4981772;28;20229;-77
2022/11/03 08:11:53;;;;;;;8.60;3.90;;;17.40;99.90;;;;;;5002413;28;20282;-77
2022/11/03 08:14:23;;;;;;;8.67;3.70;;;17.40;99.90;;;;;;4986811;28;20565;-76
2022/11/03 08:16:50;;;;;;;7.97;3.83;;;17.50;99.90;;;;;;5002019;28;20199;-77
2022/11/03 08:19:19;;;;;;;8.23;3.90;;;17.60;99.90;;;;;;4987220;28;20221;-77
2022/11/03 08:21:48;;;;;;;7.97;3.93;;;17.60;99.90;;;;;;4998777;28;20224;-77
2022/11/03 08:24:15;;;;;;;10.97;3.60;;;17.60;99.90;;;;;;5004902;28;20193;-77
2022/11/03 08:26:41;;;;;;;8.77;4.33;;;17.70;99.90;;;;;;4998859;28;20212;-77
2022/11/03 08:29:08;;;;;;;7.80;4.20;;;17.80;99.90;;;;;;4978279;28;20212;-77
2022/11/03 08:31:35;;;;;;;7.30;3.73;;;17.90;99.90;;;;;;5002550;28;20192;-77
2022/11/03 08:34:02;;;;;;;8.93;3.40;;;17.90;99.90;;;;;;5006899;28;20197;-77
2022/11/03 08:36:28;;;;;;;8.63;3.73;;;18.00;99.90;;;;;;5004275;28;20865;-77
2022/11/03 08:38:55;;;;;;;11.50;4.03;;;18.00;99.90;;;;;;4984964;28;20212;-77
2022/11/03 08:41:21;;;;;;;8.87;3.87;;;18.20;99.90;;;;;;5002792;28;20547;-77
2022/11/03 08:43:48;;;;;;;5.63;4.07;;;18.30;99.90;;;;;;5008208;28;20193;-77
2022/11/03 08:46:18;;;;;;;7.67;4.83;;;18.20;99.90;;;;;;5007565;28;20288;-77
2022/11/03 08:48:46;;;;;;;9.50;4.67;;;18.50;99.90;;;;;;5007186;28;20214;-76
2022/11/03 08:51:14;;;;;;;12.93;6.00;;;18.50;99.90;;;;;;4986127;28;20185;-76
2022/11/03 08:53:42;;;;;;;11.73;5.67;;;18.60;99.90;;;;;;5001337;28;20193;-77
2022/11/03 08:56:11;;;;;;;11.03;6.33;;;18.70;99.90;;;;;;5000593;28;20225;-77
2022/11/03 08:58:38;;;;;;;12.60;6.00;;;18.80;99.90;;;;;;5000218;28;20200;-77
2022/11/03 09:01:04;;;;;;;17.37;5.83;;;18.80;99.90;;;;;;5007496;28;20239;-77
2022/11/03 09:03:31;;;;;;;10.10;5.07;;;18.90;99.90;;;;;;4991886;28;20216;-77
2022/11/03 09:05:57;;;;;;;14.80;5.50;;;19.00;99.90;;;;;;4994000;28;20665;-77
2022/11/03 09:08:24;;;;;;;9.57;5.60;;;19.10;99.90;;;;;;4984065;28;20205;-77
2022/11/03 09:10:50;;;;;;;11.10;5.50;;;19.10;99.90;;;;;;5016735;28;20246;-77
2022/11/03 09:13:16;;;;;;;12.67;5.43;;;19.10;99.90;;;;;;4987184;28;20601;-77
2022/11/03 09:15:43;;;;;;;16.10;5.63;;;19.30;99.90;;;;;;4989160;28;20197;-76
2022/11/03 09:18:10;;;;;;;10.93;5.10;;;19.30;99.90;;;;;;4966510;28;20290;-77
2022/11/03 09:20:37;;;;;;;9.70;5.10;;;19.30;99.90;;;;;;4996520;28;20196;-77
2022/11/03 09:23:06;;;;;;;9.27;5.00;;;19.30;99.90;;;;;;4963438;28;20443;-78
2022/11/03 09:25:32;;;;;;;10.87;4.93;;;19.40;99.90;;;;;;4964712;28;20255;-77
2022/11/03 09:28:00;;;;;;;9.80;4.73;;;19.50;99.90;;;;;;4952088;28;20197;-77
2022/11/03 09:30:27;;;;;;;16.83;5.07;;;19.60;99.90;;;;;;4990731;28;20266;-77
2022/11/03 09:32:54;;;;;;;11.07;4.43;;;19.60;99.90;;;;;;4991598;28;20661;-77
2022/11/03 09:35:20;;;;;;;10.90;4.97;;;19.70;99.90;;;;;;4994638;28;20778;-78
2022/11/03 09:37:48;;;;;;;9.60;4.53;;;19.80;99.90;;;;;;4987952;28;20192;-78
2022/11/03 09:40:16;;;;;;;14.47;5.20;;;19.80;99.90;;;;;;5010116;28;20192;-76
2022/11/03 09:42:44;;;;;;;12.67;5.27;;;19.90;99.90;;;;;;4983965;28;20217;-77
2022/11/03 09:45:11;;;;;;;7.30;5.00;;;20.00;99.90;;;;;;5003603;28;20193;-77
2022/11/03 09:47:42;;;;;;;10.07;4.80;;;20.10;99.90;;;;;;5006662;28;20610;-77
2022/11/03 09:50:19;;;;;;;15.30;5.17;;;20.10;99.90;;;;;;4971141;28;20193;-77
2022/11/03 09:52:47;;;;;;;9.00;4.57;;;20.20;99.90;;;;;;5002772;28;20192;-77
2022/11/03 09:55:20;;;;;;;17.70;5.20;;;20.20;99.90;;;;;;5004353;28;20193;-77
2022/11/03 09:57:47;;;;;;;14.40;4.47;;;20.30;99.90;;;;;;4998701;28;20896;-76
2022/11/03 10:00:19;;;;;;;15.83;5.10;;;20.40;99.90;;;;;;4997964;28;20208;-77
2022/11/03 10:02:47;;;;;;;11.53;4.50;;;20.50;99.90;;;;;;5015366;28;20229;-77
2022/11/03 10:05:23;;;;;;;17.57;4.87;;;20.60;99.90;;;;;;5004679;28;20250;-77
2022/11/03 10:08:03;;;;;;;12.50;4.90;;;20.90;99.90;;;;;;5005940;28;20631;-77
2022/11/03 10:10:31;;;;;;;14.90;5.37;;;21.20;99.90;;;;;;4992652;28;20249;-77
2022/11/03 10:13:00;;;;;;;9.40;4.90;;;21.30;99.90;;;;;;4983014;28;20221;-77
2022/11/03 10:15:27;;;;;;;13.63;4.83;;;21.50;99.90;;;;;;5007529;28;20239;-77
2022/11/03 10:17:56;;;;;;;9.40;4.60;;;21.80;99.90;;;;;;4998408;28;20252;-77
2022/11/03 10:20:23;;;;;;;12.75;4.43;;;22.10;99.90;;;;;;5003266;28;20192;-77
2022/11/03 10:22:54;;;;;;;22.20;4.57;;;22.70;99.90;;;;;;4983033;28;20685;-77
2022/11/03 10:25:40;;;;;;;12.65;4.82;;;24.40;99.90;;;;;;4985000;28;20271;-77
2022/11/03 10:28:25;;;;;;;19.25;4.55;;;26.80;99.90;;;;;;5005046;28;20282;-77
2022/11/03 10:31:05;;;;;;;10.45;4.70;;;27.90;99.90;;;;;;5002575;28;20190;-77
2022/11/03 10:33:39;;;;;;;8.32;4.43;;;27.70;99.90;;;;;;5005626;28;20688;-77
2022/11/03 10:36:24;;;;;;;8.98;4.28;;;25.70;99.90;;;;;;4991897;28;20185;-77
2022/11/03 10:38:51;;;;;;;10.38;4.45;;;24.20;99.90;;;;;;5004096;28;20188;-77
2022/11/03 10:41:28;;;;;;;10.30;4.30;;;23.50;99.90;;;;;;4999943;28;20189;-76
2022/11/03 10:44:18;;;;;;;14.35;4.88;;;23.10;99.90;;;;;;4974444;28;20258;-77
2022/11/03 10:47:03;;;;;;;13.02;4.38;;;23.10;99.90;;;;;;5009402;28;20874;-77
2022/11/03 10:49:34;;;;;;;13.73;4.18;;;23.10;99.90;;;;;;5009617;28;20177;-77
2022/11/03 10:52:26;;;;;;;13.48;4.45;;;23.30;99.90;;;;;;4971709;28;20200;-77
2022/11/03 10:54:56;;;;;;;13.40;4.30;;;23.30;99.90;;;;;;4988222;28;20196;-77
2022/11/03 10:57:24;;;;;;;7.40;4.20;;;23.40;99.90;;;;;;5005241;28;20249;-77
2022/11/03 10:59:53;;;;;;;14.20;4.60;;;24.90;99.90;;;;;;5004679;28;20193;-77
2022/11/03 11:02:35;;;;;;;11.00;4.68;;;24.00;99.90;;;;;;5019506;28;20205;-77
2022/11/03 11:05:12;;;;;;;10.38;4.60;;;22.80;99.90;;;;;;5004406;28;20200;-77
2022/11/03 11:07:43;;;;;;;7.70;3.65;;;22.40;99.90;;;;;;5012933;28;20192;-77
2022/11/03 11:10:18;;;;;;;9.95;4.90;;;22.30;99.90;;;;;;5014949;28;20200;-78
2022/11/03 11:13:18;;;;;;;8.25;4.05;;;22.20;99.90;;;;;;4999190;28;20708;-77
2022/11/03 11:15:47;;;;;;;9.13;4.45;;;22.20;99.90;;;;;;5000321;28;20547;-76
2022/11/03 11:18:29;;;;;;;13.93;4.43;;;22.30;99.90;;;;;;4999934;28;20194;-77
2022/11/03 11:21:20;;;;;;;8.75;4.07;;;22.30;99.90;;;;;;5009082;28;20266;-77
2022/11/03 11:23:51;;;;;;;12.30;4.70;;;22.20;99.90;;;;;;4960379;28;20597;-77
2022/11/03 11:26:32;;;;;;;9.73;4.63;;;22.20;99.90;;;;;;5010184;28;20376;-77
2022/11/03 11:29:09;;;;;;;9.88;4.72;;;22.20;99.90;;;;;;4990750;28;20234;-77
2022/11/03 11:31:44;;;;;;;9.23;4.60;;;22.20;99.90;;;;;;5013644;28;20808;-77
2022/11/03 11:34:16;;;;;;;9.82;4.20;;;22.20;99.90;;;;;;4995682;28;20671;-77
2022/11/03 11:36:54;;;;;;;13.00;4.55;;;22.30;99.90;;;;;;5008289;28;20650;-77
2022/11/03 11:39:23;;;;;;;11.68;4.53;;;22.30;99.90;;;;;;5003517;28;20254;-77
2022/11/03 11:42:20;;;;;;;11.00;4.78;;;22.20;99.90;;;;;;4987573;28;20308;-77
2022/11/03 11:44:55;;;;;;;8.73;4.60;;;22.20;99.90;;;;;;5007557;28;20270;-77
2022/11/03 11:47:33;;;;;;;6.35;4.25;;;22.10;99.90;;;;;;4982967;28;20515;-77
2022/11/03 11:50:11;;;;;;;12.53;4.23;;;22.10;99.90;;;;;;4982818;28;20578;-77
2022/11/03 11:53:18;;;;;;;7.95;4.45;;;22.20;99.90;;;;;;5014900;28;20283;-77
2022/11/03 11:55:49;;;;;;;9.13;4.57;;;22.10;99.90;;;;;;5008899;28;20207;-77
2022/11/03 11:58:34;;;;;;;7.80;4.30;;;22.00;99.90;;;;;;5004204;28;20193;-77
2022/11/03 12:01:18;;;;;;;16.55;4.55;;;22.00;99.90;;;;;;5002487;28;20223;-77
2022/11/03 12:03:45;;;;;;;10.63;4.75;;;22.00;99.90;;;;;;5003214;28;20196;-77
2022/11/03 12:06:13;;;;;;;9.88;4.28;;;22.00;99.90;;;;;;5001446;28;20193;-77
2022/11/03 12:08:40;;;;;;;9.00;4.85;;;22.00;99.90;;;;;;5006253;28;20900;-77
2022/11/03 12:11:11;;;;;;;7.10;4.40;;;22.00;99.90;;;;;;5004253;28;20597;-76
2022/11/03 12:13:51;;;;;;;12.23;3.97;;;21.90;99.90;;;;;;5013384;28;21838;-77
2022/11/03 12:16:36;;;;;;;9.75;4.28;;;21.90;99.90;;;;;;4982795;28;20282;-77
2022/11/03 12:19:38;;;;;;;8.83;4.17;;;21.80;99.90;;;;;;5013660;28;20195;-76
2022/11/03 12:22:30;;;;;;;8.33;4.07;;;21.80;99.90;;;;;;5002541;28;20219;-77
2022/11/03 12:25:03;;;;;;;8.90;4.23;;;21.80;99.90;;;;;;4994003;28;20193;-77
2022/11/03 12:27:30;;;;;;;16.40;4.27;;;21.80;99.90;;;;;;5017465;28;20228;-77
2022/11/03 12:30:01;;;;;;;8.93;4.40;;;21.80;99.90;;;;;;5006952;28;20776;-76
2022/11/03 12:33:09;;;;;;;9.68;3.80;;;21.70;99.90;;;;;;5009921;28;20593;-77
2022/11/03 12:35:36;;;;;;;13.50;4.90;;;21.60;99.90;;;;;;4989231;28;20328;-78
2022/11/03 12:38:03;;;;;;;9.93;4.10;;;21.60;99.90;;;;;;5005276;28;20592;-76
2022/11/03 12:40:29;;;;;;;5.73;4.10;;;21.50;99.90;;;;;;5009441;28;20265;-76
2022/11/03 12:42:55;;;;;;;12.33;3.93;;;21.50;99.90;;;;;;5012277;28;20213;-76
2022/11/03 12:45:22;;;;;;;8.80;4.13;;;21.50;99.90;;;;;;5003053;28;20193;-76
2022/11/03 12:47:48;;;;;;;10.40;4.00;;;21.40;99.90;;;;;;5007731;28;20196;-76
2022/11/03 12:50:14;;;;;;;9.53;4.33;;;21.40;99.90;;;;;;5007688;28;20200;-76
2022/11/03 12:52:41;;;;;;;10.17;4.33;;;21.40;99.90;;;;;;5001805;28;20654;-76
2022/11/03 12:55:07;;;;;;;9.37;4.00;;;21.40;99.90;;;;;;5006284;28;20188;-76
2022/11/03 12:57:34;;;;;;;9.63;3.87;;;21.30;99.90;;;;;;4999057;28;20254;-76
2022/11/03 13:00:00;;;;;;;7.63;4.33;;;21.30;99.90;;;;;;4979675;28;20693;-76
2022/11/03 13:02:30;;;;;;;9.23;3.93;;;21.30;99.90;;;;;;4999974;28;20287;-76
2022/11/03 13:04:57;;;;;;;15.37;4.60;;;21.20;99.90;;;;;;4978154;28;20247;-77
2022/11/03 13:07:23;;;;;;;13.67;4.43;;;21.20;99.90;;;;;;5005389;28;20228;-76
2022/11/03 13:09:49;;;;;;;8.00;3.80;;;21.10;99.90;;;;;;5001561;28;20193;-76
2022/11/03 13:12:31;;;;;;;9.97;3.90;;;21.00;99.90;;;;;;4997388;28;20771;-76
2022/11/03 13:14:59;;;;;;;7.83;3.70;;;21.00;99.90;;;;;;5000173;28;20182;-76
2022/11/03 13:17:27;;;;;;;12.30;3.80;;;20.90;99.90;;;;;;5001827;28;20221;-76
2022/11/03 13:19:53;;;;;;;6.20;3.53;;;20.90;99.90;;;;;;4991534;28;20618;-76
2022/11/03 13:22:20;;;;;;;10.03;4.00;;;20.80;99.90;;;;;;5002071;28;20299;-76
2022/11/03 13:24:48;;;;;;;10.43;3.87;;;20.80;99.90;;;;;;4985488;28;20224;-77
2022/11/03 13:27:15;;;;;;;13.13;3.53;;;20.80;99.90;;;;;;5009459;28;20291;-76
2022/11/03 13:29:41;;;;;;;9.57;3.80;;;20.70;99.90;;;;;;4981682;28;20254;-76
2022/11/03 13:32:08;;;;;;;9.10;3.93;;;20.70;99.90;;;;;;5010503;28;20196;-76